createdAt,value
2022-08-30T00:00:35.514Z,102263.91
2022-08-30T00:03:06.935Z,102260.31
2022-08-30T00:05:39.922Z,102255.34
2022-08-30T00:08:09.467Z,102257.72
2022-08-30T00:10:39.350Z,102259.38
2022-08-30T00:13:12.117Z,102260.94
2022-08-30T00:15:42.201Z,102261.03
2022-08-30T00:18:11.811Z,102260.84
2022-08-30T00:20:44.321Z,102260.34
2022-08-30T00:23:13.994Z,102255.94
2022-08-30T00:25:44.540Z,102252.44
2022-08-30T00:28:14.426Z,102253.50
2022-08-30T00:30:44.826Z,102258.91
2022-08-30T00:33:15.481Z,102262.28
2022-08-30T00:35:47.765Z,102257.09
2022-08-30T00:38:17.425Z,102259.59
2022-08-30T00:40:48.256Z,102273.09
2022-08-30T00:43:20.893Z,102271.28
2022-08-30T00:45:50.638Z,102271.06
2022-08-30T00:48:20.613Z,102265.63
2022-08-30T00:50:57.582Z,102271.78
2022-08-30T00:53:34.059Z,102276.72
2022-08-30T00:56:03.780Z,102283.16
2022-08-30T00:58:36.825Z,102268.44
2022-08-30T01:01:07.338Z,102255.25
2022-08-30T01:03:38.405Z,102249.00
2022-08-30T01:06:10.846Z,102235.03
2022-08-30T01:08:40.523Z,102233.44
2022-08-30T01:11:10.747Z,102230.38
2022-08-30T01:13:40.857Z,102221.34
2022-08-30T01:16:10.716Z,102244.59
2022-08-30T01:18:40.285Z,102249.66
2022-08-30T01:21:18.877Z,102251.88
2022-08-30T01:23:53.787Z,102242.47
2022-08-30T01:26:24.305Z,102239.09
2022-08-30T01:29:00.887Z,102243.97
2022-08-30T01:31:30.497Z,102247.50
2022-08-30T01:33:59.975Z,102258.16
2022-08-30T01:36:29.709Z,102259.31
2022-08-30T01:39:01.853Z,102261.91
2022-08-30T01:41:34.658Z,102274.25
2022-08-30T01:44:06.717Z,102283.69
2022-08-30T01:46:39.194Z,102284.41
2022-08-30T01:49:11.429Z,102285.50
2022-08-30T01:51:41.742Z,102282.44
2022-08-30T01:54:14.242Z,102272.94
2022-08-30T01:56:43.697Z,102262.03
2022-08-30T01:59:13.172Z,102270.66
2022-08-30T02:01:44.139Z,102276.50
2022-08-30T02:04:15.721Z,102272.06
2022-08-30T02:06:45.438Z,102269.47
2022-08-30T02:09:17.590Z,102261.84
2022-08-30T02:11:48.348Z,102251.00
2022-08-30T02:14:18.206Z,102255.38
2022-08-30T02:16:50.784Z,102253.94
2022-08-30T02:19:20.736Z,102257.91
2022-08-30T02:21:50.234Z,102263.69
2022-08-30T02:24:22.292Z,102275.28
2022-08-30T02:26:53.114Z,102278.31
2022-08-30T02:29:23.089Z,102272.53
2022-08-30T02:31:52.814Z,102263.81
2022-08-30T02:34:22.709Z,102262.09
2022-08-30T02:36:52.234Z,102252.97
2022-08-30T02:39:24.443Z,102270.09
2022-08-30T02:41:53.917Z,102269.91
2022-08-30T02:44:23.401Z,102267.53
2022-08-30T02:46:52.849Z,102274.81
2022-08-30T02:49:37.747Z,102270.41
2022-08-30T02:52:08.242Z,102277.88
2022-08-30T02:54:40.288Z,102274.69
2022-08-30T02:57:19.922Z,102277.91
2022-08-30T02:59:49.905Z,102292.66
2022-08-30T03:02:19.559Z,102297.25
2022-08-30T03:04:49.295Z,102292.69
2022-08-30T03:07:18.993Z,102291.91
2022-08-30T03:09:51.104Z,102298.88
2022-08-30T03:12:20.596Z,102302.44
2022-08-30T03:14:50.064Z,102312.72
2022-08-30T03:17:19.787Z,102304.00
2022-08-30T03:19:49.565Z,102300.88
2022-08-30T03:22:19.075Z,102294.72
2022-08-30T03:24:51.142Z,102304.94
2022-08-30T03:27:20.639Z,102301.66
2022-08-30T03:29:50.134Z,102304.81
2022-08-30T03:32:19.996Z,102308.16
2022-08-30T03:34:50.294Z,102306.88
2022-08-30T03:37:23.291Z,102304.78
2022-08-30T03:39:57.839Z,102309.56
2022-08-30T03:42:27.643Z,102304.81
2022-08-30T03:44:57.162Z,102302.59
2022-08-30T03:47:26.640Z,102301.88
2022-08-30T03:49:56.103Z,102305.75
2022-08-30T03:52:25.776Z,102305.38
2022-08-30T03:54:57.847Z,102295.69
2022-08-30T03:57:27.321Z,102298.16
2022-08-30T03:59:56.903Z,102291.78
2022-08-30T04:02:27.458Z,102303.16
2022-08-30T04:04:57.029Z,102299.63
2022-08-30T04:07:26.517Z,102299.09
2022-08-30T04:09:58.682Z,102299.63
2022-08-30T04:12:28.182Z,102295.56
2022-08-30T04:14:57.692Z,102288.28
2022-08-30T04:17:27.286Z,102274.81
2022-08-30T04:19:56.854Z,102267.31
2022-08-30T04:22:26.358Z,102274.06
2022-08-30T04:24:58.562Z,102268.66
2022-08-30T04:27:28.110Z,102259.41
2022-08-30T04:29:57.678Z,102254.22
2022-08-30T04:32:27.153Z,102248.84
2022-08-30T04:34:59.731Z,102233.13
2022-08-30T04:37:29.484Z,102225.72
2022-08-30T04:40:03.238Z,102228.09
2022-08-30T04:42:37.217Z,102226.16
2022-08-30T04:45:08.970Z,102218.44
2022-08-30T04:47:39.212Z,102205.34
2022-08-30T04:50:09.921Z,102189.22
2022-08-30T04:52:39.478Z,102185.06
2022-08-30T04:55:16.743Z,102177.50
2022-08-30T04:57:48.948Z,102169.47
2022-08-30T05:00:20.841Z,102167.72
2022-08-30T05:02:51.001Z,102163.56
2022-08-30T05:05:33.307Z,102165.75
2022-08-30T05:08:02.852Z,102161.69
2022-08-30T05:10:35.378Z,102170.06
2022-08-30T05:13:04.837Z,102166.34
2022-08-30T05:15:34.402Z,102160.56
2022-08-30T05:18:03.898Z,102144.56
2022-08-30T05:20:33.485Z,102147.22
2022-08-30T05:23:02.970Z,102155.25
2022-08-30T05:25:37.501Z,102152.69
2022-08-30T05:28:07.111Z,102155.22
2022-08-30T05:30:38.290Z,102166.66
2022-08-30T05:33:10.634Z,102171.31
2022-08-30T05:35:40.997Z,102179.28
2022-08-30T05:38:10.486Z,102188.94
2022-08-30T05:40:46.318Z,102202.56
2022-08-30T05:43:16.210Z,102215.13
2022-08-30T05:45:45.659Z,102215.63
2022-08-30T05:48:15.267Z,102232.22
2022-08-30T05:50:44.898Z,102264.00
2022-08-30T05:53:14.391Z,102289.72
2022-08-30T05:55:46.516Z,102304.56
2022-08-30T05:58:16.145Z,102304.34
2022-08-30T06:00:45.833Z,102316.00
2022-08-30T06:03:15.384Z,102323.38
2022-08-30T06:05:44.914Z,102335.25
2022-08-30T06:08:14.510Z,102346.50
2022-08-30T06:10:46.682Z,102365.56
2022-08-30T06:13:17.239Z,102366.28
2022-08-30T06:15:47.310Z,102371.41
2022-08-30T06:18:17.321Z,102378.59
2022-08-30T06:20:51.320Z,102390.69
2022-08-30T06:23:21.265Z,102392.59
2022-08-30T06:25:53.433Z,102401.66
2022-08-30T06:28:22.912Z,102416.41
2022-08-30T06:30:52.537Z,102415.13
2022-08-30T06:33:22.030Z,102428.56
2022-08-30T06:35:59.157Z,102427.53
2022-08-30T06:38:29.861Z,102423.72
2022-08-30T06:41:01.990Z,102432.47
2022-08-30T06:43:31.881Z,102447.34
2022-08-30T06:46:05.221Z,102460.53
2022-08-30T06:48:34.860Z,102469.22
2022-08-30T06:51:04.446Z,102455.63
2022-08-30T06:53:34.122Z,102449.81
2022-08-30T06:56:09.025Z,102446.03
2022-08-30T06:58:40.981Z,102438.50
2022-08-30T07:01:15.926Z,102447.13
2022-08-30T07:03:45.594Z,102444.47
2022-08-30T07:06:15.390Z,102436.22
2022-08-30T07:08:45.201Z,102442.53
2022-08-30T07:11:17.338Z,102439.09
2022-08-30T07:13:46.762Z,102438.97
2022-08-30T07:16:16.935Z,102444.88
2022-08-30T07:18:55.059Z,102433.91
2022-08-30T07:21:27.651Z,102438.53
2022-08-30T07:23:58.244Z,102441.41
2022-08-30T07:26:32.185Z,102440.00
2022-08-30T07:29:02.399Z,102451.16
2022-08-30T07:31:33.107Z,102443.00
2022-08-30T07:34:02.599Z,102446.25
2022-08-30T07:36:32.438Z,102442.25
2022-08-30T07:39:01.939Z,102444.66
2022-08-30T07:41:38.899Z,102448.34
2022-08-30T07:44:09.071Z,102447.97
2022-08-30T07:46:39.977Z,102461.97
2022-08-30T07:49:11.543Z,102458.41
2022-08-30T07:51:41.671Z,102471.69
2022-08-30T07:54:11.167Z,102477.13
2022-08-30T07:56:43.262Z,102482.94
2022-08-30T07:59:12.734Z,102495.47
2022-08-30T08:01:42.764Z,102515.50
2022-08-30T08:04:12.505Z,102525.28
2022-08-30T08:06:42.679Z,102537.84
2022-08-30T08:09:12.178Z,102549.44
2022-08-30T08:11:44.374Z,102557.13
2022-08-30T08:17:05.026Z,102563.44
2022-08-30T08:19:34.546Z,102576.91
2022-08-30T08:22:26.270Z,102577.50
2022-08-30T08:25:05.274Z,102592.13
2022-08-30T08:27:37.626Z,102591.38
2022-08-30T08:30:08.989Z,102599.91
2022-08-30T08:32:38.490Z,102609.72
2022-08-30T08:35:08.470Z,102621.09
2022-08-30T08:37:37.977Z,102631.16
2022-08-30T08:40:09.299Z,102635.69
2022-08-30T08:42:51.957Z,102642.53
2022-08-30T08:45:24.958Z,102638.06
2022-08-30T08:47:59.227Z,102633.44
2022-08-30T08:50:33.120Z,102631.94
2022-08-30T08:53:36.169Z,102618.56
2022-08-30T08:56:12.964Z,102612.59
2022-08-30T08:58:48.134Z,102602.91
2022-08-30T09:01:21.066Z,102604.19
2022-08-30T09:03:51.611Z,102606.47
2022-08-30T09:06:49.054Z,102595.84
2022-08-30T09:09:19.444Z,102557.88
2022-08-30T09:11:49.708Z,102527.72
2022-08-30T09:14:23.549Z,102493.72
2022-08-30T09:17:02.954Z,102472.47
2022-08-30T09:19:45.279Z,102438.25
2022-08-30T09:22:21.717Z,102384.28
2022-08-30T09:24:55.123Z,102346.59
2022-08-30T09:27:36.993Z,102309.06
2022-08-30T09:30:14.255Z,102284.03
2022-08-30T09:32:47.693Z,102275.34
2022-08-30T09:35:23.069Z,102228.88
2022-08-30T09:37:56.893Z,102157.53
2022-08-30T09:40:32.317Z,102124.50
2022-08-30T09:43:05.293Z,102079.38
2022-08-30T09:45:41.349Z,102049.53
2022-08-30T09:48:33.041Z,102001.16
2022-08-30T09:51:18.606Z,101934.53
2022-08-30T09:56:46.658Z,101687.41
2022-08-30T09:59:29.618Z,101616.06
2022-08-30T10:02:05.146Z,101566.81
2022-08-30T10:04:41.945Z,101577.63
2022-08-30T10:07:19.166Z,101579.19
2022-08-30T10:09:54.934Z,101574.88
2022-08-30T10:12:29.872Z,101574.19
2022-08-30T10:15:03.890Z,101564.69
2022-08-30T10:17:44.758Z,101555.88
2022-08-30T10:20:21.415Z,101534.09
2022-08-30T10:22:54.158Z,101511.25
2022-08-30T10:25:31.496Z,101498.94
2022-08-30T10:28:06.345Z,101505.00
2022-08-30T10:30:40.269Z,101503.22
2022-08-30T10:33:17.719Z,101506.75
2022-08-30T10:35:49.437Z,101504.16
2022-08-30T10:38:23.063Z,101516.03
2022-08-30T10:41:08.308Z,101527.88
2022-08-30T10:43:45.513Z,101535.66
2022-08-30T10:46:25.306Z,101540.22
2022-08-30T10:48:58.178Z,101536.09
2022-08-30T10:51:31.371Z,101535.28
2022-08-30T10:54:05.171Z,101515.91
2022-08-30T10:56:34.737Z,101526.50
2022-08-30T10:59:07.737Z,101525.72
2022-08-30T11:01:57.834Z,101529.69
2022-08-30T11:04:52.268Z,101537.50
2022-08-30T11:07:31.286Z,101541.03
2022-08-30T11:10:15.133Z,101536.88
2022-08-30T11:12:56.432Z,101537.06
2022-08-30T11:15:30.061Z,101543.31
2022-08-30T11:18:01.894Z,101529.47
2022-08-30T11:20:39.875Z,101523.56
2022-08-30T11:23:24.913Z,101508.09
2022-08-30T11:25:58.303Z,101504.78
2022-08-30T11:28:57.944Z,101499.06
2022-08-30T11:31:51.716Z,101517.81
2022-08-30T11:34:51.682Z,101526.97
2022-08-30T11:37:39.391Z,101526.53
2022-08-30T11:40:17.248Z,101526.31
2022-08-30T11:42:49.180Z,101527.94
2022-08-30T11:45:52.542Z,101531.25
2022-08-30T11:48:53.837Z,101533.25
2022-08-30T11:52:08.256Z,101542.16
2022-08-30T11:54:44.554Z,101569.91
2022-08-30T11:57:20.945Z,101611.31
2022-08-30T11:59:59.709Z,101707.47
2022-08-30T12:02:48.402Z,101770.88
2022-08-30T12:06:02.922Z,101823.44
2022-08-30T12:08:59.560Z,101845.97
2022-08-30T12:12:00.561Z,101890.47
2022-08-30T12:14:48.849Z,101910.19
2022-08-30T12:17:37.246Z,101907.00
2022-08-30T12:20:09.173Z,101903.06
2022-08-30T12:22:40.665Z,101914.13
2022-08-30T12:25:19.338Z,101932.06
2022-08-30T12:27:52.462Z,101922.00
2022-08-30T12:30:29.687Z,101919.38
2022-08-30T12:32:59.372Z,101907.81
2022-08-30T12:35:30.860Z,101918.78
2022-08-30T12:38:02.945Z,101917.03
2022-08-30T12:40:34.647Z,101918.34
2022-08-30T12:43:09.725Z,101920.03
2022-08-30T12:45:41.703Z,101918.22
2022-08-30T12:48:13.582Z,101922.28
2022-08-30T12:50:48.920Z,101920.78
2022-08-30T12:53:26.464Z,101919.97
2022-08-30T12:56:01.866Z,101918.00
2022-08-30T12:58:45.694Z,101909.16
2022-08-30T13:01:37.353Z,101919.00
2022-08-30T13:04:15.975Z,101912.59
2022-08-30T13:06:52.159Z,101914.34
2022-08-30T13:09:27.795Z,101910.06
2022-08-30T13:12:02.833Z,101911.13
2022-08-30T13:14:45.710Z,101913.28
2022-08-30T13:17:24.881Z,101910.06
2022-08-30T13:20:06.734Z,101910.72
2022-08-30T13:22:38.513Z,101904.88
2022-08-30T13:25:09.239Z,101903.50
2022-08-30T13:27:40.238Z,101899.44
2022-08-30T13:30:16.092Z,101895.22
2022-08-30T13:32:45.958Z,101889.66
2022-08-30T13:35:15.553Z,101898.56
2022-08-30T13:37:49.359Z,101889.13
2022-08-30T13:40:21.323Z,101884.81
2022-08-30T13:42:50.988Z,101881.28
2022-08-30T13:48:13.758Z,101876.13
2022-08-30T13:50:43.770Z,101875.41
2022-08-30T13:53:13.714Z,101876.16
2022-08-30T13:55:44.554Z,101869.09
2022-08-30T13:58:14.362Z,101874.31
2022-08-30T14:00:48.697Z,101874.31
2022-08-30T14:03:23.514Z,101880.38
2022-08-30T14:06:15.767Z,101864.53
2022-08-30T14:08:46.294Z,101871.56
2022-08-30T14:11:21.106Z,101872.50
2022-08-30T14:16:46.322Z,101879.72
2022-08-30T14:19:17.374Z,101873.59
2022-08-30T14:21:49.227Z,101872.31
2022-08-30T14:24:20.238Z,101878.75
2022-08-30T14:26:53.027Z,101873.19
2022-08-30T14:29:26.011Z,101879.41
2022-08-30T14:32:00.103Z,101876.22
2022-08-30T14:34:29.812Z,101886.78
2022-08-30T14:36:59.454Z,101879.56
2022-08-30T14:39:28.949Z,101888.25
2022-08-30T14:41:58.829Z,101886.00
2022-08-30T14:44:54.700Z,101882.16
2022-08-30T14:47:29.460Z,101892.63
2022-08-30T14:50:01.914Z,101887.63
2022-08-30T14:52:31.779Z,101884.22
2022-08-30T14:55:09.039Z,101877.34
2022-08-30T14:57:39.543Z,101881.25
2022-08-30T15:00:12.043Z,101881.84
2022-08-30T15:02:44.213Z,101875.75
2022-08-30T15:05:14.003Z,101887.59
2022-08-30T15:07:44.151Z,101886.38
2022-08-30T15:10:14.907Z,101891.47
2022-08-30T15:12:44.416Z,101896.47
2022-08-30T15:15:14.321Z,101895.66
2022-08-30T15:17:46.386Z,101898.28
2022-08-30T15:20:18.739Z,101902.66
2022-08-30T15:22:48.512Z,101896.28
2022-08-30T15:25:18.039Z,101896.16
2022-08-30T15:27:47.539Z,101885.88
2022-08-30T15:30:19.568Z,101895.38
2022-08-30T15:32:52.365Z,101893.59
2022-08-30T15:35:22.750Z,101889.44
2022-08-30T15:37:52.343Z,101889.97
2022-08-30T15:40:24.497Z,101890.56
2022-08-30T15:42:55.988Z,101889.31
2022-08-30T15:45:25.488Z,101886.72
2022-08-30T15:47:57.716Z,101894.41
2022-08-30T15:50:27.810Z,101882.75
2022-08-30T15:52:57.753Z,101887.75
2022-08-30T15:55:27.337Z,101886.06
2022-08-30T15:57:56.838Z,101888.19
2022-08-30T16:00:26.462Z,101881.28
2022-08-30T16:02:58.506Z,101889.69
2022-08-30T16:05:29.357Z,101893.06
2022-08-30T16:07:58.868Z,101892.78
2022-08-30T16:10:29.601Z,101886.44
2022-08-30T16:13:01.655Z,101882.75
2022-08-30T16:15:32.632Z,101878.28
2022-08-30T16:18:04.700Z,101885.13
2022-08-30T16:20:34.273Z,101878.47
2022-08-30T16:23:03.742Z,101882.78
2022-08-30T16:25:39.993Z,101883.63
2022-08-30T16:28:11.353Z,101886.03
2022-08-30T16:30:41.223Z,101883.25
2022-08-30T16:33:16.221Z,101892.56
2022-08-30T16:35:45.899Z,101888.13
2022-08-30T16:38:15.382Z,101884.53
2022-08-30T16:40:45.069Z,101888.75
2022-08-30T16:43:16.063Z,101885.06
2022-08-30T16:45:46.303Z,101886.53
2022-08-30T16:48:20.614Z,101889.09
2022-08-30T16:50:50.277Z,101891.75
2022-08-30T16:53:19.758Z,101882.16
2022-08-30T16:55:49.250Z,101887.28
2022-08-30T16:58:19.589Z,101882.84
2022-08-30T17:00:51.145Z,101886.00
2022-08-30T17:03:23.934Z,101876.09
2022-08-30T17:05:57.096Z,101884.66
2022-08-30T17:08:27.181Z,101888.78
2022-08-30T17:10:56.949Z,101892.16
2022-08-30T17:13:27.517Z,101893.94
2022-08-30T17:15:57.113Z,101893.63
2022-08-30T17:18:30.422Z,101894.28
2022-08-30T17:21:00.246Z,101899.28
2022-08-30T17:23:29.864Z,101895.50
2022-08-30T17:26:00.371Z,101896.41
2022-08-30T17:28:30.158Z,101897.97
2022-08-30T17:30:59.955Z,101901.22
2022-08-30T17:33:32.479Z,101909.69
2022-08-30T17:36:03.341Z,101912.97
2022-08-30T17:38:32.806Z,101911.72
2022-08-30T17:41:04.830Z,101921.09
2022-08-30T17:43:36.202Z,101922.69
2022-08-30T17:46:07.921Z,101919.03
2022-08-30T17:48:40.850Z,101923.19
2022-08-30T17:51:10.647Z,101924.91
2022-08-30T17:53:40.242Z,101928.03
2022-08-30T17:56:12.735Z,101928.81
2022-08-30T17:58:42.262Z,101931.41
2022-08-30T18:01:14.326Z,101930.25
2022-08-30T18:03:46.909Z,101924.03
2022-08-30T18:06:16.689Z,101932.66
2022-08-30T18:08:46.275Z,101931.66
2022-08-30T18:11:15.923Z,101940.22
2022-08-30T18:13:45.626Z,101933.13
2022-08-30T18:16:21.563Z,101942.41
2022-08-30T18:18:58.209Z,101939.78
2022-08-30T18:21:28.398Z,101946.63
2022-08-30T18:23:58.343Z,101946.28
2022-08-30T18:26:27.912Z,101939.94
2022-08-30T18:28:57.426Z,101942.38
2022-08-30T18:31:29.206Z,101949.28
2022-08-30T18:34:01.718Z,101950.88
2022-08-30T18:36:31.641Z,101955.00
2022-08-30T18:39:01.253Z,101958.41
2022-08-30T18:41:30.922Z,101955.47
2022-08-30T18:44:24.061Z,101964.47
2022-08-30T18:46:56.066Z,101955.66
2022-08-30T18:49:32.457Z,101970.22
2022-08-30T18:52:02.395Z,101962.13
2022-08-30T18:54:32.832Z,101962.88
2022-08-30T18:57:02.509Z,101964.41
2022-08-30T18:59:36.774Z,101965.91
2022-08-30T19:02:07.547Z,101963.78
2022-08-30T19:04:42.770Z,101971.31
2022-08-30T19:07:14.762Z,101968.56
2022-08-30T19:09:45.344Z,101972.78
2022-08-30T19:12:15.336Z,101971.03
2022-08-30T19:14:45.761Z,101969.09
2022-08-30T19:17:15.771Z,101971.34
2022-08-30T19:23:05.742Z,101975.16
2022-08-30T19:25:27.270Z,101970.47
2022-08-30T19:27:58.656Z,101955.13
2022-08-30T19:30:30.416Z,101935.16
2022-08-30T19:33:00.016Z,101915.97
2022-08-30T19:35:32.498Z,101889.47
2022-08-30T19:38:02.398Z,101866.78
2022-08-30T19:40:33.848Z,101832.44
2022-08-30T19:43:05.190Z,101802.09
2022-08-30T19:45:34.718Z,101783.09
2022-08-30T19:48:04.744Z,101784.75
2022-08-30T19:50:37.047Z,101788.78
2022-08-30T19:53:06.813Z,101777.31
2022-08-30T19:55:40.288Z,101768.72
2022-08-30T19:58:09.857Z,101769.59
2022-08-30T20:00:52.922Z,101768.53
2022-08-30T20:03:25.505Z,101753.00
2022-08-30T20:05:57.767Z,101754.59
2022-08-30T20:08:27.510Z,101749.16
2022-08-30T20:10:57.058Z,101741.78
2022-08-30T20:13:26.910Z,101732.63
2022-08-30T20:15:57.243Z,101726.16
2022-08-30T20:18:28.857Z,101705.81
2022-08-30T20:21:01.150Z,101684.78
2022-08-30T20:23:35.253Z,101687.00
2022-08-30T20:24:33.089Z,101971.84
2022-08-30T20:26:06.274Z,101676.31
2022-08-30T20:28:35.818Z,101664.69
2022-08-30T20:31:07.413Z,101660.97
2022-08-30T20:33:39.181Z,101657.16
2022-08-30T20:36:12.988Z,101644.22
2022-08-30T20:38:42.658Z,101643.47
2022-08-30T20:41:14.182Z,101633.25
2022-08-30T20:43:43.632Z,101616.25
2022-08-30T20:46:14.992Z,101622.16
2022-08-30T20:48:44.669Z,101639.34
2022-08-30T20:51:18.643Z,101632.00
2022-08-30T20:53:48.492Z,101642.47
2022-08-30T20:56:19.625Z,101645.81
2022-08-30T20:58:49.449Z,101654.34
2022-08-30T21:01:19.578Z,101643.53
2022-08-30T21:03:50.544Z,101648.72
2022-08-30T21:06:23.073Z,101650.22
2022-08-30T21:08:52.580Z,101645.25
2022-08-30T21:11:23.346Z,101646.19
2022-08-30T21:13:52.851Z,101644.84
2022-08-30T21:16:22.423Z,101643.00
2022-08-30T21:18:51.976Z,101647.25
2022-08-30T21:21:27.869Z,101645.94
2022-08-30T21:24:01.186Z,101637.47
2022-08-30T21:26:31.425Z,101628.09
2022-08-30T21:29:00.969Z,101616.03
2022-08-30T21:31:31.814Z,101610.50
2022-08-30T21:34:01.370Z,101614.56
2022-08-30T21:36:46.009Z,101607.16
2022-08-30T21:39:17.732Z,101615.03
2022-08-30T21:41:48.083Z,101606.59
2022-08-30T21:44:20.146Z,101611.56
2022-08-30T21:46:50.698Z,101612.63
2022-08-30T21:49:21.718Z,101608.94
2022-08-30T21:51:55.444Z,101622.34
2022-08-30T21:54:28.407Z,101622.94
2022-08-30T21:57:04.961Z,101626.47
2022-08-30T21:59:34.930Z,101627.34
2022-08-30T22:02:04.723Z,101628.91
2022-08-30T22:04:34.219Z,101638.53
2022-08-30T22:07:08.302Z,101629.78
2022-08-30T22:09:38.493Z,101639.09
2022-08-30T22:12:09.085Z,101633.84
2022-08-30T22:14:40.666Z,101633.69
2022-08-30T22:17:10.189Z,101646.53
2022-08-30T22:19:39.650Z,101646.69
2022-08-30T22:22:13.437Z,101651.50
2022-08-30T22:24:43.187Z,101658.19
2022-08-30T22:27:12.693Z,101666.13
2022-08-30T22:29:42.554Z,101667.38
2022-08-30T22:32:12.432Z,101666.34
2022-08-30T22:34:41.978Z,101661.59
2022-08-30T22:37:14.355Z,101662.22
2022-08-30T22:39:43.887Z,101676.16
2022-08-30T22:42:13.572Z,101689.41
2022-08-30T22:44:43.026Z,101721.16
2022-08-30T22:47:12.513Z,101710.50
2022-08-30T22:49:42.020Z,101723.72
2022-08-30T22:52:14.424Z,101734.41
2022-08-30T22:54:44.710Z,101755.94
2022-08-30T22:57:15.749Z,101748.94
2022-08-30T22:59:45.216Z,101736.97
2022-08-30T23:02:14.836Z,101739.56
2022-08-30T23:04:44.345Z,101725.53
2022-08-30T23:07:16.480Z,101732.16
2022-08-30T23:09:46.077Z,101753.66
2022-08-30T23:12:15.542Z,101766.66
2022-08-30T23:14:45.099Z,101787.19
2022-08-30T23:17:14.649Z,101810.91
2022-08-30T23:19:44.150Z,101861.59
2022-08-30T23:22:16.242Z,101881.75
2022-08-30T23:24:58.158Z,101912.44
2022-08-30T23:27:40.157Z,101987.13
2022-08-30T23:30:23.243Z,102140.34
2022-08-30T23:33:05.249Z,102183.81
2022-08-30T23:35:47.200Z,102197.19
2022-08-30T23:38:31.744Z,102231.34
2022-08-30T23:41:13.806Z,102267.91
2022-08-30T23:43:55.741Z,102312.59
2022-08-30T23:46:37.754Z,102351.88
2022-08-30T23:49:19.966Z,102385.84
2022-08-30T23:52:01.915Z,102409.50
2022-08-30T23:54:46.494Z,102426.75
2022-08-30T23:57:28.398Z,102443.72
